createdAt,value
2023-04-15T00:01:53.728Z,5.65
2023-04-15T00:04:21.006Z,4.75
2023-04-15T00:06:55.347Z,4.25
2023-04-15T00:09:22.418Z,4.20
2023-04-15T00:11:51.341Z,3.75
2023-04-15T00:14:18.440Z,3.45
2023-04-15T00:16:45.485Z,3.28
2023-04-15T00:19:13.244Z,3.67
2023-04-15T00:21:40.273Z,3.88
2023-04-15T00:24:07.239Z,3.75
2023-04-15T00:26:34.281Z,3.60
2023-04-15T00:29:01.603Z,4.03
2023-04-15T00:31:28.893Z,4.05
2023-04-15T00:33:55.957Z,3.65
2023-04-15T00:36:23.510Z,3.35
2023-04-15T00:38:50.930Z,4.10
2023-04-15T00:41:19.412Z,5.05
2023-04-15T00:43:46.469Z,5.10
2023-04-15T00:46:16.129Z,4.78
2023-04-15T00:48:44.266Z,4.88
2023-04-15T00:51:11.351Z,4.80
2023-04-15T00:53:38.404Z,4.88
2023-04-15T00:56:06.691Z,4.53
2023-04-15T00:58:33.766Z,5.07
2023-04-15T01:01:01.108Z,4.65
2023-04-15T01:03:30.285Z,4.33
2023-04-15T01:06:01.571Z,4.80
2023-04-15T01:08:31.264Z,4.47
2023-04-15T01:11:02.324Z,4.40
2023-04-15T01:13:30.386Z,4.43
2023-04-15T01:15:58.107Z,4.38
2023-04-15T01:18:25.443Z,4.20
2023-04-15T01:20:52.390Z,3.33
2023-04-15T01:23:19.954Z,3.45
2023-04-15T01:25:47.657Z,3.95
2023-04-15T01:28:14.922Z,3.72
2023-04-15T01:30:42.343Z,4.22
2023-04-15T01:33:09.388Z,3.70
2023-04-15T01:35:36.528Z,4.80
2023-04-15T01:38:09.424Z,4.63
2023-04-15T01:40:37.963Z,3.72
2023-04-15T01:43:05.024Z,4.60
2023-04-15T01:45:34.181Z,4.53
2023-04-15T01:48:04.423Z,4.38
2023-04-15T01:50:31.629Z,4.47
2023-04-15T01:52:58.712Z,4.25
2023-04-15T01:55:26.314Z,4.90
2023-04-15T01:57:53.292Z,4.65
2023-04-15T02:00:22.441Z,4.55
2023-04-15T02:02:49.708Z,4.13
2023-04-15T02:05:16.800Z,4.55
2023-04-15T02:07:48.549Z,4.82
2023-04-15T02:10:16.877Z,3.90
2023-04-15T02:12:44.155Z,3.90
2023-04-15T02:15:11.745Z,3.88
2023-04-15T02:17:38.866Z,3.65
2023-04-15T02:20:06.540Z,3.78
2023-04-15T02:22:33.537Z,3.45
2023-04-15T02:25:00.612Z,3.85
2023-04-15T02:27:29.024Z,3.83
2023-04-15T02:29:56.028Z,3.97
2023-04-15T02:32:24.584Z,4.05
2023-04-15T02:34:51.897Z,4.35
2023-04-15T02:37:20.541Z,3.83
2023-04-15T02:39:47.920Z,4.03
2023-04-15T02:42:15.879Z,4.10
2023-04-15T02:44:43.728Z,3.97
2023-04-15T02:47:11.793Z,4.07
2023-04-15T02:49:41.976Z,3.55
2023-04-15T02:52:10.167Z,3.80
2023-04-15T02:54:37.393Z,4.15
2023-04-15T02:57:06.879Z,4.20
2023-04-15T03:02:01.258Z,4.20
2023-04-15T03:04:30.291Z,3.90
2023-04-15T03:06:57.595Z,4.10
2023-04-15T03:09:25.371Z,3.47
2023-04-15T03:11:54.847Z,3.42
2023-04-15T03:14:22.537Z,3.05
2023-04-15T03:16:50.722Z,3.05
2023-04-15T03:19:18.354Z,3.00
2023-04-15T03:21:45.385Z,2.88
2023-04-15T03:24:12.718Z,2.35
2023-04-15T03:26:39.849Z,2.67
2023-04-15T03:29:12.305Z,2.70
2023-04-15T03:31:40.620Z,3.45
2023-04-15T03:34:07.660Z,2.58
2023-04-15T03:36:35.073Z,2.90
2023-04-15T03:39:04.728Z,2.80
2023-04-15T03:44:00.114Z,2.80
2023-04-15T03:46:27.258Z,3.10
2023-04-15T03:48:54.239Z,3.30
2023-04-15T03:51:21.545Z,3.15
2023-04-15T03:53:48.520Z,3.00
2023-04-15T03:56:15.988Z,2.95
2023-04-15T03:58:43.054Z,3.20
2023-04-15T04:01:10.367Z,3.17
2023-04-15T04:03:38.042Z,3.45
2023-04-15T04:06:05.248Z,3.35
2023-04-15T04:08:32.374Z,3.45
2023-04-15T04:10:59.417Z,3.55
2023-04-15T04:13:26.551Z,4.10
2023-04-15T04:15:53.603Z,3.33
2023-04-15T04:18:20.777Z,3.17
2023-04-15T04:20:48.206Z,3.65
2023-04-15T04:23:15.205Z,3.00
2023-04-15T04:25:42.545Z,2.78
2023-04-15T04:28:09.654Z,3.55
2023-04-15T04:30:36.720Z,3.20
2023-04-15T04:33:03.939Z,3.55
2023-04-15T04:35:30.976Z,3.95
2023-04-15T04:38:02.049Z,3.15
2023-04-15T04:40:29.039Z,3.28
2023-04-15T04:42:56.109Z,4.00
2023-04-15T04:45:23.716Z,3.42
2023-04-15T04:47:50.829Z,3.22
2023-04-15T04:50:17.810Z,2.88
2023-04-15T04:52:44.853Z,3.67
2023-04-15T04:55:11.913Z,3.58
2023-04-15T04:57:39.809Z,3.90
2023-04-15T05:00:09.047Z,3.50
2023-04-15T05:02:36.252Z,3.55
2023-04-15T05:05:03.369Z,3.63
2023-04-15T05:07:30.630Z,3.65
2023-04-15T05:09:57.596Z,4.32
2023-04-15T05:12:29.254Z,3.85
2023-04-15T05:14:56.352Z,3.50
2023-04-15T05:17:23.394Z,3.72
2023-04-15T05:19:50.583Z,3.83
2023-04-15T05:22:17.544Z,3.67
2023-04-15T05:24:44.553Z,3.38
2023-04-15T05:27:11.929Z,3.40
2023-04-15T05:29:39.008Z,3.70
2023-04-15T05:32:06.718Z,3.15
2023-04-15T05:34:33.758Z,3.00
2023-04-15T05:37:00.852Z,3.88
2023-04-15T05:39:28.012Z,4.13
2023-04-15T05:41:54.974Z,3.67
2023-04-15T05:44:22.021Z,3.90
2023-04-15T05:46:48.958Z,3.40
2023-04-15T05:49:15.945Z,4.13
2023-04-15T05:51:42.893Z,5.00
2023-04-15T05:54:09.887Z,6.78
2023-04-15T05:56:37.113Z,7.20
2023-04-15T05:59:04.126Z,7.20
2023-04-15T06:01:31.326Z,6.75
2023-04-15T06:03:58.390Z,9.55
2023-04-15T06:06:25.433Z,7.28
2023-04-15T06:08:52.508Z,6.88
2023-04-15T06:11:22.171Z,5.95
2023-04-15T06:16:16.183Z,5.70
2023-04-15T06:18:43.306Z,5.30
2023-04-15T06:21:10.676Z,5.80
2023-04-15T06:23:37.807Z,4.78
2023-04-15T06:26:04.873Z,4.75
2023-04-15T06:28:33.006Z,4.30
2023-04-15T06:31:01.572Z,4.57
2023-04-15T06:33:28.798Z,4.40
2023-04-15T06:35:55.743Z,4.72
2023-04-15T06:38:22.799Z,4.75
2023-04-15T06:40:49.830Z,5.13
2023-04-15T06:43:16.809Z,4.03
2023-04-15T06:45:44.894Z,5.32
2023-04-15T06:48:12.286Z,4.90
2023-04-15T06:50:39.374Z,4.55
2023-04-15T06:53:06.733Z,5.15
2023-04-15T06:55:34.490Z,5.00
2023-04-15T06:58:01.556Z,4.20
2023-04-15T07:00:28.915Z,4.18
2023-04-15T07:02:56.650Z,3.75
2023-04-15T07:05:25.480Z,3.80
2023-04-15T07:07:53.334Z,3.70
2023-04-15T07:10:20.614Z,3.47
2023-04-15T07:12:49.301Z,3.35
2023-04-15T07:15:16.651Z,3.28
2023-04-15T07:17:43.650Z,3.90
2023-04-15T07:20:13.108Z,3.80
2023-04-15T07:22:41.081Z,4.10
2023-04-15T07:25:09.054Z,3.58
2023-04-15T07:27:36.406Z,3.60
2023-04-15T07:30:03.667Z,3.67
2023-04-15T07:32:31.689Z,3.67
2023-04-15T07:35:03.851Z,4.22
2023-04-15T07:37:34.613Z,3.80
2023-04-15T07:40:01.998Z,3.13
2023-04-15T07:42:29.467Z,3.80
2023-04-15T07:44:58.109Z,4.30
2023-04-15T07:47:25.966Z,3.80
2023-04-15T07:49:53.342Z,3.42
2023-04-15T07:52:20.394Z,3.22
2023-04-15T07:54:47.422Z,3.45
2023-04-15T07:57:14.476Z,3.67
2023-04-15T07:59:42.099Z,4.03
2023-04-15T08:02:09.952Z,3.65
2023-04-15T08:04:37.601Z,3.60
2023-04-15T08:07:05.178Z,3.70
2023-04-15T08:09:32.159Z,3.85
2023-04-15T08:11:59.162Z,3.35
2023-04-15T08:14:26.384Z,3.90
2023-04-15T08:16:53.526Z,3.78
2023-04-15T08:19:20.763Z,3.78
2023-04-15T08:21:47.777Z,3.65
2023-04-15T08:24:15.751Z,4.60
2023-04-15T08:26:42.837Z,4.57
2023-04-15T08:29:09.877Z,4.90
2023-04-15T08:31:36.881Z,4.68
2023-04-15T08:34:03.951Z,4.40
2023-04-15T08:36:32.619Z,4.18
2023-04-15T08:39:02.328Z,4.60
2023-04-15T08:41:40.048Z,4.97
2023-04-15T08:44:07.638Z,4.60
2023-04-15T08:46:35.089Z,5.38
2023-04-15T08:49:05.294Z,4.60
2023-04-15T08:51:34.035Z,3.78
2023-04-15T08:54:03.872Z,4.45
2023-04-15T08:59:02.267Z,4.30
2023-04-15T09:01:29.797Z,4.20
2023-04-15T09:03:57.682Z,4.93
2023-04-15T09:06:25.732Z,4.70
2023-04-15T09:08:54.911Z,5.53
2023-04-15T09:11:22.650Z,5.43
2023-04-15T09:13:49.895Z,5.88
2023-04-15T09:16:17.197Z,6.35
2023-04-15T09:18:44.394Z,5.75
2023-04-15T09:21:17.920Z,5.63
2023-04-15T09:24:01.990Z,6.05
2023-04-15T09:26:37.925Z,6.82
2023-04-15T09:29:09.842Z,6.43
2023-04-15T09:31:37.857Z,6.10
2023-04-15T09:34:05.927Z,6.25
2023-04-15T09:36:50.965Z,5.70
2023-04-15T09:39:18.281Z,5.82
2023-04-15T09:41:45.572Z,5.57
2023-04-15T09:44:26.128Z,5.85
2023-04-15T09:46:53.188Z,5.82
2023-04-15T09:49:21.387Z,5.82
2023-04-15T09:52:03.932Z,5.13
2023-04-15T09:54:38.934Z,5.28
2023-04-15T09:57:07.565Z,5.43
2023-04-15T09:59:34.616Z,5.22
2023-04-15T10:02:04.823Z,5.53
2023-04-15T10:04:36.607Z,5.20
2023-04-15T10:07:06.388Z,5.20
2023-04-15T10:09:34.952Z,4.85
2023-04-15T10:12:04.277Z,5.60
2023-04-15T10:14:38.730Z,4.95
2023-04-15T10:17:07.856Z,5.68
2023-04-15T10:19:38.205Z,4.90
2023-04-15T10:22:05.551Z,4.47
2023-04-15T10:24:33.309Z,5.25
2023-04-15T10:27:01.114Z,5.35
2023-04-15T10:29:28.629Z,4.82
2023-04-15T10:31:57.012Z,5.22
2023-04-15T10:34:25.782Z,5.22
2023-04-15T10:36:57.523Z,5.18
2023-04-15T10:39:34.325Z,4.80
2023-04-15T10:42:07.637Z,5.28
2023-04-15T10:44:37.876Z,5.13
2023-04-15T10:47:20.567Z,5.57
2023-04-15T10:49:50.501Z,5.70
2023-04-15T10:52:25.924Z,5.13
2023-04-15T10:55:04.692Z,5.35
2023-04-15T10:57:37.789Z,5.82
2023-04-15T11:00:18.862Z,5.05
2023-04-15T11:02:53.351Z,5.13
2023-04-15T11:05:22.319Z,5.00
2023-04-15T11:07:52.262Z,5.55
2023-04-15T11:10:31.352Z,5.38
2023-04-15T11:13:00.687Z,5.50
2023-04-15T11:15:41.181Z,5.55
2023-04-15T11:18:24.339Z,5.75
2023-04-15T11:20:54.985Z,5.25
2023-04-15T11:23:46.944Z,5.22
2023-04-15T11:26:14.264Z,5.60
2023-04-15T11:28:44.916Z,5.57
2023-04-15T11:31:18.056Z,6.30
2023-04-15T11:33:59.523Z,5.20
2023-04-15T11:36:28.238Z,13.35
2023-04-15T11:38:56.321Z,6.47
2023-04-15T11:41:26.702Z,5.68
2023-04-15T11:43:53.906Z,5.70
2023-04-15T11:46:22.899Z,5.78
2023-04-15T11:48:50.049Z,4.53
2023-04-15T11:51:17.097Z,4.47
2023-04-15T11:53:52.123Z,4.15
2023-04-15T11:56:24.004Z,3.53
2023-04-15T11:59:00.001Z,3.40
2023-04-15T12:01:39.972Z,3.22
2023-04-15T12:04:24.239Z,3.17
2023-04-15T12:06:52.357Z,2.50
2023-04-15T12:09:20.529Z,2.88
2023-04-15T12:11:49.372Z,2.50
2023-04-15T12:14:30.604Z,2.40
2023-04-15T12:17:00.600Z,2.42
2023-04-15T12:19:36.592Z,2.75
2023-04-15T12:22:10.501Z,2.60
2023-04-15T12:24:38.892Z,2.55
2023-04-15T12:27:11.457Z,2.92
2023-04-15T12:29:40.757Z,3.05
2023-04-15T12:32:15.911Z,3.28
2023-04-15T12:34:54.519Z,2.53
2023-04-15T12:37:21.976Z,3.10
2023-04-15T12:39:50.228Z,2.35
2023-04-15T12:42:17.857Z,2.53
2023-04-15T12:44:48.148Z,2.30
2023-04-15T12:47:15.455Z,2.55
2023-04-15T12:49:42.662Z,2.30
2023-04-15T12:52:09.734Z,2.40
2023-04-15T12:54:36.797Z,2.42
2023-04-15T12:57:06.846Z,2.60
2023-04-15T12:59:34.931Z,2.55
2023-04-15T13:02:03.042Z,2.42
2023-04-15T13:04:31.489Z,2.25
2023-04-15T13:06:58.978Z,2.35
2023-04-15T13:09:26.162Z,2.35
2023-04-15T13:11:54.524Z,2.10
2023-04-15T13:14:21.868Z,2.67
2023-04-15T13:16:48.919Z,1.90
2023-04-15T13:19:16.050Z,2.00
2023-04-15T13:21:43.114Z,2.00
2023-04-15T13:24:10.178Z,2.22
2023-04-15T13:26:37.976Z,2.30
2023-04-15T13:29:05.138Z,2.10
2023-04-15T13:31:32.280Z,1.90
2023-04-15T13:33:59.634Z,2.50
2023-04-15T13:36:27.514Z,2.00
2023-04-15T13:38:54.921Z,1.98
2023-04-15T13:41:22.224Z,1.83
2023-04-15T13:43:49.285Z,2.00
2023-04-15T13:46:16.789Z,1.80
2023-04-15T13:48:43.862Z,1.60
2023-04-15T13:51:10.954Z,2.13
2023-04-15T13:53:39.411Z,2.20
2023-04-15T13:56:08.479Z,1.65
2023-04-15T13:58:36.824Z,1.87
2023-04-15T14:01:05.952Z,1.75
2023-04-15T14:03:34.989Z,1.75
2023-04-15T14:06:02.555Z,2.03
2023-04-15T14:08:30.888Z,1.75
2023-04-15T14:10:57.960Z,1.88
2023-04-15T14:13:25.392Z,1.80
2023-04-15T14:15:52.497Z,1.60
2023-04-15T14:18:20.049Z,1.77
2023-04-15T14:20:47.210Z,1.48
2023-04-15T14:23:14.581Z,1.75
2023-04-15T14:25:41.768Z,1.90
2023-04-15T14:28:08.889Z,1.20
2023-04-15T14:30:36.054Z,1.63
2023-04-15T14:33:03.940Z,1.40
2023-04-15T14:35:31.509Z,1.60
2023-04-15T14:37:58.963Z,1.38
2023-04-15T14:40:26.085Z,1.50
2023-04-15T14:42:53.186Z,1.10
2023-04-15T14:45:20.237Z,1.20
2023-04-15T14:47:47.726Z,1.40
2023-04-15T14:50:21.154Z,1.17
2023-04-15T14:52:49.471Z,0.90
2023-04-15T14:55:16.630Z,1.60
2023-04-15T14:57:43.674Z,1.50
2023-04-15T15:00:13.740Z,1.60
2023-04-15T15:02:43.706Z,1.48
2023-04-15T15:05:12.212Z,1.50
2023-04-15T15:07:41.150Z,1.45
2023-04-15T15:10:08.589Z,1.60
2023-04-15T15:12:35.931Z,1.63
2023-04-15T15:15:12.301Z,1.42
2023-04-15T15:17:47.013Z,1.67
2023-04-15T15:20:14.124Z,1.73
2023-04-15T15:22:41.103Z,1.77
2023-04-15T15:25:08.233Z,1.30
2023-04-15T15:27:37.699Z,1.23
2023-04-15T15:30:07.014Z,1.58
2023-04-15T15:32:34.181Z,1.50
2023-04-15T15:35:01.370Z,10.15
2023-04-15T15:37:30.294Z,1.45
2023-04-15T15:39:57.495Z,1.25
2023-04-15T15:42:25.110Z,1.10
2023-04-15T15:44:53.001Z,1.20
2023-04-15T15:47:21.724Z,1.30
2023-04-15T15:49:48.839Z,1.10
2023-04-15T15:52:16.067Z,1.38
2023-04-15T15:54:43.202Z,1.30
2023-04-15T15:57:10.775Z,1.60
2023-04-15T15:59:43.683Z,1.95
2023-04-15T16:02:12.250Z,1.67
2023-04-15T16:04:39.915Z,1.98
2023-04-15T16:07:07.090Z,1.85
2023-04-15T16:09:34.650Z,2.95
2023-04-15T16:12:02.276Z,2.58
2023-04-15T16:14:34.535Z,2.00
2023-04-15T16:17:01.631Z,2.40
2023-04-15T16:19:28.749Z,2.15
2023-04-15T16:21:55.877Z,2.13
2023-04-15T16:24:23.006Z,2.47
2023-04-15T16:26:50.052Z,2.50
2023-04-15T16:29:17.093Z,3.85
2023-04-15T16:31:44.209Z,2.80
2023-04-15T16:34:11.644Z,2.55
2023-04-15T16:36:40.625Z,2.90
2023-04-15T16:39:07.910Z,12.25
2023-04-15T16:41:35.338Z,5.82
2023-04-15T16:44:03.487Z,8.82
2023-04-15T16:46:31.131Z,4.18
2023-04-15T16:48:58.334Z,4.28
2023-04-15T16:51:30.541Z,2.72
2023-04-15T16:53:57.707Z,2.85
2023-04-15T16:56:24.848Z,2.88
2023-04-15T16:58:51.888Z,3.40
2023-04-15T17:01:23.169Z,3.28
2023-04-15T17:03:50.470Z,3.17
2023-04-15T17:06:17.944Z,2.88
2023-04-15T17:08:45.038Z,2.70
2023-04-15T17:11:12.525Z,2.67
2023-04-15T17:13:39.546Z,2.55
2023-04-15T17:16:07.962Z,3.00
2023-04-15T17:18:34.998Z,2.65
2023-04-15T17:21:02.226Z,2.15
2023-04-15T17:23:29.681Z,3.00
2023-04-15T17:25:56.695Z,2.00
2023-04-15T17:28:23.738Z,2.20
2023-04-15T17:30:50.828Z,2.25
2023-04-15T17:33:55.952Z,2.03
2023-04-15T17:36:05.383Z,1.60
2023-04-15T17:38:32.368Z,2.05
2023-04-15T17:40:59.426Z,1.70
2023-04-15T17:43:26.466Z,2.00
2023-04-15T17:45:54.689Z,1.85
2023-04-15T17:48:21.902Z,1.77
2023-04-15T17:50:50.443Z,2.17
2023-04-15T17:53:19.078Z,2.00
2023-04-15T17:55:46.577Z,1.60
2023-04-15T17:58:13.620Z,1.90
2023-04-15T18:00:40.859Z,1.90
2023-04-15T18:03:08.196Z,1.92
2023-04-15T18:05:35.456Z,2.38
2023-04-15T18:08:02.515Z,1.73
2023-04-15T18:10:35.553Z,2.10
2023-04-15T18:13:03.527Z,2.00
2023-04-15T18:15:31.381Z,1.92
2023-04-15T18:18:05.637Z,1.73
2023-04-15T18:20:33.609Z,1.52
2023-04-15T18:23:00.700Z,1.30
2023-04-15T18:25:27.676Z,1.90
2023-04-15T18:27:55.225Z,1.63
2023-04-15T18:30:22.546Z,1.52
2023-04-15T18:32:49.595Z,1.70
2023-04-15T18:35:17.287Z,2.17
2023-04-15T18:37:44.290Z,1.58
2023-04-15T18:40:11.773Z,1.63
2023-04-15T18:42:38.804Z,1.30
2023-04-15T18:45:06.379Z,1.60
2023-04-15T18:47:33.436Z,1.50
2023-04-15T18:50:00.778Z,1.67
2023-04-15T18:52:27.735Z,1.65
2023-04-15T18:54:54.788Z,1.50
2023-04-15T18:57:28.652Z,1.67
2023-04-15T19:00:00.166Z,1.60
2023-04-15T19:02:27.250Z,1.55
2023-04-15T19:04:54.261Z,1.67
2023-04-15T19:07:22.255Z,1.83
2023-04-15T19:09:49.250Z,1.50
2023-04-15T19:12:16.290Z,1.58
2023-04-15T19:14:43.342Z,1.83
2023-04-15T19:17:10.344Z,2.10
2023-04-15T19:19:37.402Z,2.00
2023-04-15T19:22:04.716Z,2.30
2023-04-15T19:24:33.103Z,1.95
2023-04-15T19:27:01.581Z,1.52
2023-04-15T19:29:28.980Z,1.70
2023-04-15T19:31:56.169Z,1.77
2023-04-15T19:34:23.256Z,1.52
2023-04-15T19:36:50.562Z,1.85
2023-04-15T19:39:22.758Z,1.60
2023-04-15T19:41:49.967Z,1.60
2023-04-15T19:44:17.035Z,1.58
2023-04-15T19:46:45.016Z,1.63
2023-04-15T19:49:12.394Z,1.95
2023-04-15T19:51:39.320Z,1.98
2023-04-15T19:54:06.633Z,1.70
2023-04-15T19:56:34.560Z,2.08
2023-04-15T19:59:02.316Z,2.03
2023-04-15T20:01:29.317Z,1.90
2023-04-15T20:03:56.483Z,2.10
2023-04-15T20:06:23.949Z,1.88
2023-04-15T20:08:51.932Z,2.40
2023-04-15T20:11:19.128Z,2.30
2023-04-15T20:13:46.264Z,1.83
2023-04-15T20:16:13.451Z,2.10
2023-04-15T20:18:40.401Z,2.38
2023-04-15T20:21:07.416Z,2.63
2023-04-15T20:23:36.048Z,2.80
2023-04-15T20:26:03.006Z,2.95
2023-04-15T20:28:30.335Z,2.60
2023-04-15T20:30:57.378Z,2.85
2023-04-15T20:33:25.833Z,3.22
2023-04-15T20:35:53.596Z,3.28
2023-04-15T20:38:21.945Z,3.10
2023-04-15T20:40:48.944Z,3.22
2023-04-15T20:43:15.997Z,3.28
2023-04-15T20:45:42.988Z,3.15
2023-04-15T20:48:10.989Z,3.08
2023-04-15T20:50:38.963Z,3.17
2023-04-15T20:53:06.206Z,2.95
2023-04-15T20:55:33.178Z,3.15
2023-04-15T20:58:00.221Z,3.35
2023-04-15T21:00:27.441Z,3.38
2023-04-15T21:02:54.708Z,2.97
2023-04-15T21:05:21.885Z,3.40
2023-04-15T21:07:48.959Z,2.72
2023-04-15T21:10:16.070Z,3.22
2023-04-15T21:12:43.032Z,3.00
2023-04-15T21:15:10.590Z,3.30
2023-04-15T21:17:37.759Z,3.00
2023-04-15T21:20:10.902Z,3.33
2023-04-15T21:22:37.888Z,3.47
2023-04-15T21:25:05.265Z,3.92
2023-04-15T21:27:32.311Z,4.10
2023-04-15T21:29:59.447Z,3.97
2023-04-15T21:32:27.286Z,4.05
2023-04-15T21:34:54.607Z,4.20
2023-04-15T21:37:21.621Z,4.35
2023-04-15T21:39:48.653Z,4.35
2023-04-15T21:42:15.728Z,4.60
2023-04-15T21:44:42.797Z,4.47
2023-04-15T21:47:09.883Z,4.45
2023-04-15T21:49:37.254Z,4.00
2023-04-15T21:52:04.730Z,4.55
2023-04-15T21:54:33.226Z,4.70
2023-04-15T21:57:02.019Z,4.43
2023-04-15T21:59:29.192Z,4.70
2023-04-15T22:01:56.422Z,5.45
2023-04-15T22:04:24.891Z,4.55
2023-04-15T22:06:52.389Z,5.07
2023-04-15T22:09:19.614Z,4.97
2023-04-15T22:11:47.372Z,4.85
2023-04-15T22:14:15.008Z,4.72
2023-04-15T22:16:42.060Z,5.03
2023-04-15T22:19:09.802Z,5.45
2023-04-15T22:21:36.879Z,5.47
2023-04-15T22:24:33.507Z,4.80
2023-04-15T22:26:51.036Z,5.82
2023-04-15T22:29:17.982Z,5.95
2023-04-15T22:31:45.024Z,5.65
2023-04-15T22:34:14.752Z,6.38
2023-04-15T22:36:41.807Z,6.35
2023-04-15T22:39:08.821Z,6.75
2023-04-15T22:41:35.896Z,6.82
2023-04-15T22:44:02.950Z,6.50
2023-04-15T22:46:30.638Z,6.57
2023-04-15T22:48:57.972Z,7.13
2023-04-15T22:51:28.053Z,7.38
2023-04-15T22:53:55.793Z,7.28
2023-04-15T22:56:23.431Z,7.53
2023-04-15T22:58:50.748Z,7.10
2023-04-15T23:01:18.478Z,7.40
2023-04-15T23:03:56.475Z,8.02
2023-04-15T23:06:31.525Z,8.45
2023-04-15T23:08:58.498Z,8.70
2023-04-15T23:11:25.557Z,7.68
2023-04-15T23:13:53.205Z,8.45
2023-04-15T23:16:20.203Z,8.15
2023-04-15T23:18:47.194Z,7.80
2023-04-15T23:21:14.243Z,7.38
2023-04-15T23:23:41.183Z,7.18
2023-04-15T23:26:08.168Z,7.40
2023-04-15T23:28:35.354Z,7.53
2023-04-15T23:31:03.942Z,6.53
2023-04-15T23:33:32.632Z,6.68
2023-04-15T23:35:59.596Z,7.18
2023-04-15T23:38:26.534Z,6.45
2023-04-15T23:40:53.503Z,6.63
2023-04-15T23:43:20.454Z,6.18
2023-04-15T23:45:47.534Z,6.60
2023-04-15T23:48:14.582Z,6.13
2023-04-15T23:50:41.566Z,6.35
2023-04-15T23:53:08.514Z,6.07
2023-04-15T23:55:35.582Z,6.07
2023-04-15T23:58:02.540Z,6.32
